Time;durP1;ratioP1;P1;durP2;ratioP2;P2;SDS_P1;SDS_P2;PMS_P1;PMS_P2;Temp;Humidity;BMP_temperature;BMP_pressure;BME280_temperature;BME280_humidity;BME280_pressure;Samples;Min_cycle;Max_cycle;Signal;HPM_P1;HPM_P2
2020/12/19 00:01:41;;;;;;;14.23;10.05;;;;;;;6.65;87.31;100218.41;5076906;28;20045;-72
2020/12/19 00:04:07;;;;;;;13.75;9.43;;;;;;;6.71;87.57;100235.00;5075867;28;20059;-71
2020/12/19 00:06:34;;;;;;;12.63;9.13;;;;;;;6.59;87.61;100225.78;5076054;28;20051;-71
2020/12/19 00:09:00;;;;;;;13.73;9.98;;;;;;;6.61;87.71;100243.38;5076880;28;20338;-71
2020/12/19 00:11:26;;;;;;;11.80;8.85;;;;;;;6.61;87.93;100231.88;5076500;28;20102;-71
2020/12/19 00:13:52;;;;;;;10.98;8.88;;;;;;;6.54;87.66;100225.13;5076434;28;20400;-71
2020/12/19 00:16:19;;;;;;;14.23;9.77;;;;;;;6.38;87.83;100208.06;5076739;28;20412;-72
2020/12/19 00:18:45;;;;;;;11.70;8.93;;;;;;;6.34;88.28;100205.63;5076502;28;20063;-72
2020/12/19 00:21:12;;;;;;;13.95;10.45;;;;;;;6.37;88.77;100221.38;5075532;28;20055;-72
2020/12/19 00:23:38;;;;;;;14.15;9.35;;;;;;;6.31;88.66;100216.38;5076389;28;20429;-72
2020/12/19 00:26:04;;;;;;;19.00;10.30;;;;;;;6.28;88.69;100211.19;5076230;28;20060;-71
2020/12/19 00:28:31;;;;;;;13.57;9.43;;;;;;;6.23;88.35;100211.38;5075282;28;20055;-72
2020/12/19 00:30:57;;;;;;;12.73;9.35;;;;;;;6.15;88.65;100200.25;5076467;28;20098;-72
2020/12/19 00:33:23;;;;;;;16.45;10.93;;;;;;;6.11;88.93;100197.72;5076106;28;20105;-72
2020/12/19 00:35:49;;;;;;;15.85;10.73;;;;;;;6.04;89.34;100179.50;5075052;28;20050;-71
2020/12/19 00:38:16;;;;;;;13.90;10.45;;;;;;;5.94;89.26;100179.00;5076083;28;20106;-71
2020/12/19 00:40:56;;;;;;;14.82;10.82;;;;;;;5.86;89.32;100192.53;5076076;28;20163;-72
2020/12/19 00:43:22;;;;;;;17.58;11.88;;;;;;;5.88;90.24;100189.84;5076030;28;20053;-71
2020/12/19 00:45:48;;;;;;;16.83;11.40;;;;;;;5.75;89.98;100182.41;5076119;28;20122;-72
2020/12/19 00:48:14;;;;;;;17.92;11.40;;;;;;;5.74;89.74;100193.91;5075038;28;20080;-70
2020/12/19 00:50:40;;;;;;;16.30;10.93;;;;;;;5.68;89.51;100195.00;5074598;28;20052;-70
2020/12/19 00:53:06;;;;;;;18.40;11.27;;;;;;;5.73;90.73;100183.38;5074893;28;20445;-71
2020/12/19 00:55:33;;;;;;;15.25;10.40;;;;;;;5.73;90.39;100184.25;5075589;28;20492;-71
2020/12/19 00:58:01;;;;;;;17.05;11.18;;;;;;;5.57;90.86;100150.44;5075551;28;20055;-70
2020/12/19 01:00:27;;;;;;;19.30;11.52;;;;;;;5.76;90.67;100183.25;5075586;28;20048;-70
2020/12/19 01:02:53;;;;;;;15.25;10.90;;;;;;;5.84;90.60;100171.41;5075669;28;20110;-72
2020/12/19 01:05:20;;;;;;;19.15;10.38;;;;;;;5.83;90.91;100164.41;5075295;28;20044;-71
2020/12/19 01:07:46;;;;;;;15.38;9.90;;;;;;;5.79;90.72;100165.47;5075730;28;20133;-71
2020/12/19 01:10:13;;;;;;;13.77;9.50;;;;;;;5.79;89.81;100167.25;5075404;28;20362;-71
2020/12/19 01:12:39;;;;;;;16.67;11.07;;;;;;;5.69;90.82;100172.94;5075519;28;20052;-71
2020/12/19 01:15:08;;;;;;;14.50;10.50;;;;;;;5.69;91.02;100159.69;5075272;28;20056;-72
2020/12/19 01:17:34;;;;;;;16.17;10.52;;;;;;;5.72;90.88;100174.56;5075558;28;20384;-70
2020/12/19 01:20:01;;;;;;;14.10;10.20;;;;;;;5.67;90.77;100171.25;5074286;28;20049;-73
2020/12/19 01:22:27;;;;;;;17.60;11.75;;;;;;;5.76;92.01;100170.00;5073926;28;20109;-72
2020/12/19 01:24:53;;;;;;;16.17;10.77;;;;;;;6.17;91.03;100172.75;5075457;28;20052;-71
2020/12/19 01:27:19;;;;;;;14.75;10.02;;;;;;;6.03;89.69;100162.75;5074189;28;20055;-71
2020/12/19 01:29:45;;;;;;;14.68;10.40;;;;;;;6.01;89.79;100169.88;5075439;28;20060;-70
2020/12/19 01:32:11;;;;;;;16.38;10.68;;;;;;;5.96;90.20;100169.19;5075316;28;20044;-71
2020/12/19 01:34:38;;;;;;;14.07;10.07;;;;;;;5.81;90.52;100166.25;5075015;28;20052;-71
2020/12/19 01:37:04;;;;;;;17.67;11.90;;;;;;;5.93;91.17;100161.34;5075182;28;20426;-72
2020/12/19 01:39:30;;;;;;;16.70;10.63;;;;;;;6.05;91.29;100167.97;5074222;28;20056;-71
2020/12/19 01:41:56;;;;;;;16.67;10.43;;;;;;;6.03;90.75;100161.88;5073910;28;20049;-72
2020/12/19 01:44:22;;;;;;;17.67;10.75;;;;;;;6.09;91.07;100177.50;5075252;28;20044;-70
2020/12/19 01:46:54;;;;;;;15.93;10.60;;;;;;;6.10;91.00;100179.25;5074870;28;20084;-71
2020/12/19 01:49:26;;;;;;;15.95;9.63;;;;;;;6.13;90.22;100178.25;5074990;28;20143;-70
2020/12/19 01:51:56;;;;;;;15.63;9.70;;;;;;;6.15;90.95;100176.41;5075228;28;20053;-70
2020/12/19 01:54:23;;;;;;;15.98;11.30;;;;;;;6.21;90.76;100176.16;5075193;28;20060;-71
2020/12/19 01:56:52;;;;;;;16.17;10.88;;;;;;;6.21;90.41;100166.38;5074959;28;20052;-71
2020/12/19 01:59:19;;;;;;;14.82;10.68;;;;;;;6.23;90.50;100142.47;5075042;28;20052;-71
2020/12/19 02:01:47;;;;;;;15.50;10.18;;;;;;;6.36;90.29;100158.69;5074853;28;20048;-70
2020/12/19 02:04:14;;;;;;;14.13;10.13;;;;;;;6.36;90.20;100158.69;5074797;28;20350;-71
2020/12/19 02:06:43;;;;;;;15.52;10.80;;;;;;;6.48;90.06;100154.69;5074825;28;20098;-71
2020/12/19 02:09:11;;;;;;;15.82;9.70;;;;;;;6.43;89.89;100146.06;5075943;28;20082;-71
2020/12/19 02:11:37;;;;;;;13.85;9.68;;;;;;;6.55;89.72;100153.47;5074689;28;20056;-73
2020/12/19 02:14:08;;;;;;;14.95;9.75;;;;;;;6.49;89.45;100153.75;5074759;28;20060;-72
2020/12/19 02:16:34;;;;;;;15.57;9.93;;;;;;;6.51;89.41;100150.09;5073965;28;20056;-71
2020/12/19 02:19:01;;;;;;;13.48;9.50;;;;;;;6.53;89.57;100147.34;5074546;28;20048;-71
2020/12/19 02:21:27;;;;;;;14.45;9.85;;;;;;;6.50;89.36;100151.00;5074597;28;20523;-71
2020/12/19 02:23:53;;;;;;;15.07;9.95;;;;;;;6.50;89.74;100147.50;5074926;28;20064;-71
2020/12/19 02:26:19;;;;;;;14.30;10.63;;;;;;;6.52;89.23;100142.97;5074642;28;20053;-71
2020/12/19 02:28:45;;;;;;;17.30;9.52;;;;;;;6.61;89.06;100139.06;5074403;28;20430;-72
2020/12/19 02:31:12;;;;;;;13.00;9.40;;;;;;;6.62;89.09;100136.34;5074805;28;20049;-71
2020/12/19 02:33:38;;;;;;;13.20;9.43;;;;;;;6.61;88.90;100129.34;5073912;28;20064;-72
2020/12/19 02:36:07;;;;;;;17.25;9.23;;;;;;;6.58;89.01;100124.16;5061237;28;20056;-72
2020/12/19 02:38:33;;;;;;;14.13;8.98;;;;;;;6.56;89.16;100110.09;5077429;28;20064;-72
2020/12/19 02:40:59;;;;;;;13.77;9.50;;;;;;;6.64;88.60;100123.88;5077966;28;20099;-71
2020/12/19 02:43:25;;;;;;;12.18;8.80;;;;;;;6.65;88.52;100122.94;5078479;28;20075;-72
2020/12/19 02:45:51;;;;;;;13.80;8.82;;;;;;;6.76;88.24;100118.94;5078402;28;20094;-72
2020/12/19 02:48:18;;;;;;;11.93;8.85;;;;;;;6.78;87.89;100112.66;5078414;28;20349;-71
2020/12/19 02:50:44;;;;;;;13.32;8.90;;;;;;;6.75;87.76;100111.94;5078175;28;20087;-71
2020/12/19 02:53:10;;;;;;;11.77;8.10;;;;;;;6.72;87.73;100117.34;5078111;28;20098;-72
2020/12/19 02:55:36;;;;;;;15.85;9.10;;;;;;;6.66;87.89;100106.09;5078271;28;20053;-72
2020/12/19 02:58:02;;;;;;;14.60;9.20;;;;;;;6.71;87.64;100115.63;5078201;28;20048;-72
2020/12/19 03:00:29;;;;;;;12.93;9.07;;;;;;;6.65;87.75;100103.53;5078014;28;20052;-72
2020/12/19 03:02:55;;;;;;;14.15;8.98;;;;;;;6.61;88.17;100102.81;5076674;28;20048;-72
2020/12/19 03:05:22;;;;;;;12.82;8.98;;;;;;;6.60;88.07;100102.88;5077732;28;20044;-72
2020/12/19 03:07:48;;;;;;;11.75;8.70;;;;;;;6.58;88.06;100096.78;5077974;28;20060;-72
2020/12/19 03:10:14;;;;;;;11.90;9.00;;;;;;;6.54;88.02;100098.69;5077678;28;20056;-71
2020/12/19 03:12:40;;;;;;;12.38;8.68;;;;;;;6.53;87.77;100099.63;5077597;28;20449;-73
2020/12/19 03:15:07;;;;;;;13.73;8.60;;;;;;;6.48;87.49;100085.72;5077701;28;20063;-72
2020/12/19 03:17:33;;;;;;;13.07;8.65;;;;;;;6.55;87.59;100097.78;5077562;28;20338;-71
2020/12/19 03:19:59;;;;;;;12.77;9.55;;;;;;;6.51;87.52;100099.72;5077545;28;20438;-71
2020/12/19 03:22:25;;;;;;;12.23;8.93;;;;;;;6.44;87.32;100079.72;5077535;28;20102;-72
2020/12/19 03:24:51;;;;;;;12.15;9.07;;;;;;;6.50;87.21;100089.16;5077223;28;20060;-71
2020/12/19 03:27:17;;;;;;;11.98;8.45;;;;;;;6.46;87.43;100101.69;5076313;28;20053;-72
2020/12/19 03:29:43;;;;;;;12.05;8.57;;;;;;;6.39;87.52;100103.75;5076332;28;20056;-72
2020/12/19 03:32:10;;;;;;;11.45;8.52;;;;;;;6.32;87.44;100086.41;5077402;28;20389;-72
2020/12/19 03:34:36;;;;;;;11.60;8.75;;;;;;;6.33;87.50;100101.38;5077624;28;20129;-71
2020/12/19 03:37:02;;;;;;;11.38;7.82;;;;;;;6.45;87.23;100101.75;5077425;28;20056;-72
2020/12/19 03:39:28;;;;;;;11.73;8.10;;;;;;;6.41;87.23;100094.88;5077212;28;20044;-71
2020/12/19 03:41:54;;;;;;;13.52;8.73;;;;;;;6.36;87.27;100092.44;5077346;28;20125;-72
2020/12/19 03:44:21;;;;;;;10.00;7.60;;;;;;;6.32;87.07;100094.34;5076869;28;20449;-72
2020/12/19 03:46:47;;;;;;;13.45;8.38;;;;;;;6.22;87.13;100093.06;5077303;28;20086;-72
2020/12/19 03:49:13;;;;;;;13.25;8.48;;;;;;;6.06;88.11;100072.50;5077018;28;20143;-71
2020/12/19 03:51:39;;;;;;;11.90;8.38;;;;;;;6.13;88.03;100080.19;5077028;28;20416;-71
2020/12/19 03:54:05;;;;;;;10.93;7.90;;;;;;;6.11;87.46;100081.13;5075636;28;20059;-70
2020/12/19 03:56:31;;;;;;;12.35;8.32;;;;;;;6.29;87.12;100075.06;5076114;28;20110;-71
2020/12/19 03:58:57;;;;;;;11.27;7.30;;;;;;;6.22;87.08;100062.09;5077076;28;20059;-71
2020/12/19 04:01:23;;;;;;;11.82;7.50;;;;;;;6.34;86.81;100076.63;5076762;28;20331;-70
2020/12/19 04:03:50;;;;;;;10.82;7.05;;;;;;;6.32;86.85;100062.53;5076529;28;20059;-70
2020/12/19 04:06:16;;;;;;;9.25;7.25;;;;;;;6.30;87.12;100069.72;5076728;28;20049;-70
2020/12/19 04:08:42;;;;;;;12.32;7.45;;;;;;;6.35;86.60;100061.56;5075417;28;20102;-71
2020/12/19 04:11:08;;;;;;;11.13;7.32;;;;;;;6.35;86.75;100061.56;5076843;28;20059;-71
2020/12/19 04:13:34;;;;;;;10.32;7.38;;;;;;;6.35;86.66;100062.44;5076553;28;20420;-70
2020/12/19 04:16:00;;;;;;;10.70;7.65;;;;;;;6.35;86.63;100059.78;5076384;28;20056;-70
2020/12/19 04:18:27;;;;;;;11.05;7.70;;;;;;;6.45;86.34;100057.56;5076392;28;20106;-69
2020/12/19 04:20:53;;;;;;;10.10;6.72;;;;;;;6.47;86.63;100060.13;5076435;28;20052;-70
2020/12/19 04:23:19;;;;;;;12.13;7.05;;;;;;;6.46;86.01;100043.38;5076031;28;20743;-69
2020/12/19 04:25:47;;;;;;;8.48;6.22;;;;;;;6.49;86.34;100039.72;5075498;28;20052;-70
2020/12/19 04:28:13;;;;;;;10.52;6.22;;;;;;;6.47;86.31;100042.44;5075196;28;20268;-73
2020/12/19 04:30:42;;;;;;;12.25;7.05;;;;;;;6.44;86.64;100039.94;5058931;28;20056;-72
2020/12/19 04:33:08;;;;;;;9.32;7.00;;;;;;;6.41;86.60;100031.25;5076217;28;20048;-70
2020/12/19 04:35:34;;;;;;;11.43;6.88;;;;;;;6.48;86.53;100030.91;5075284;28;20056;-70
2020/12/19 04:38:01;;;;;;;9.57;7.55;;;;;;;6.53;86.62;100028.03;5075890;28;20055;-70
2020/12/19 04:40:27;;;;;;;8.63;6.72;;;;;;;6.61;86.33;100025.91;5075301;28;20048;-70
2020/12/19 04:42:53;;;;;;;9.23;6.30;;;;;;;6.66;86.41;100023.88;5076131;28;20049;-70
2020/12/19 04:45:20;;;;;;;9.15;6.50;;;;;;;6.65;86.11;100010.72;5075064;28;20053;-70
2020/12/19 04:47:47;;;;;;;8.60;6.85;;;;;;;6.58;86.56;100004.81;5074842;28;20053;-70
2020/12/19 04:50:16;;;;;;;11.93;7.80;;;;;;;6.69;86.63;100008.78;5075950;28;20048;-72
2020/12/19 04:52:42;;;;;;;9.80;7.10;;;;;;;6.66;86.50;100004.47;5076199;28;20502;-71
2020/12/19 04:55:08;;;;;;;13.60;7.55;;;;;;;6.74;86.69;100007.59;5075597;28;20061;-70
2020/12/19 04:57:36;;;;;;;9.90;7.70;;;;;;;6.82;86.14;99996.63;5073929;28;20052;-70
2020/12/19 05:00:03;;;;;;;9.57;6.70;;;;;;;6.81;86.41;99992.25;5075534;28;20496;-72
2020/12/19 05:02:30;;;;;;;10.32;7.22;;;;;;;6.78;86.52;99997.72;5075559;28;20102;-71
2020/12/19 05:05:03;;;;;;;10.70;7.00;;;;;;;6.78;86.36;99995.06;5075747;28;20053;-71
2020/12/19 05:07:37;;;;;;;9.65;6.93;;;;;;;6.80;86.71;99993.19;5074729;28;20080;-71
2020/12/19 05:10:04;;;;;;;10.60;7.55;;;;;;;6.78;87.07;99987.09;5075580;28;20132;-71
2020/12/19 05:12:31;;;;;;;10.20;7.85;;;;;;;6.80;87.27;99987.88;5075620;28;20044;-72
2020/12/19 05:14:57;;;;;;;13.95;8.23;;;;;;;6.85;87.40;99983.22;5075339;28;20087;-71
2020/12/19 05:17:25;;;;;;;10.35;7.65;;;;;;;6.82;86.99;99991.34;5075273;28;20068;-72
2020/12/19 05:19:54;;;;;;;14.45;8.73;;;;;;;6.85;87.43;99988.53;5075268;28;20434;-72
2020/12/19 05:22:20;;;;;;;10.80;8.40;;;;;;;6.81;87.84;99991.41;5075368;28;20074;-71
2020/12/19 05:24:47;;;;;;;15.02;9.55;;;;;;;6.79;88.74;99992.34;5074095;28;20067;-71
2020/12/19 05:27:14;;;;;;;11.95;8.65;;;;;;;6.81;88.10;99986.94;5075188;28;20058;-71
2020/12/19 05:29:40;;;;;;;13.63;9.32;;;;;;;6.87;88.46;99999.06;5074059;28;20048;-70
2020/12/19 05:32:08;;;;;;;12.93;8.88;;;;;;;6.85;88.51;99995.59;5074110;28;20040;-70
2020/12/19 05:34:34;;;;;;;13.70;8.70;;;;;;;6.86;88.99;99998.19;5073957;28;20354;-71
2020/12/19 05:37:01;;;;;;;14.02;9.55;;;;;;;6.91;89.21;99990.88;5075429;28;20083;-72
2020/12/19 05:39:27;;;;;;;14.05;9.52;;;;;;;6.91;89.21;99984.69;5075194;28;20079;-71
2020/12/19 05:41:53;;;;;;;15.70;10.35;;;;;;;6.89;89.18;99984.78;5074875;28;20048;-72
2020/12/19 05:44:21;;;;;;;12.50;9.15;;;;;;;6.90;88.99;99982.97;5057219;28;20515;-69
2020/12/19 05:46:47;;;;;;;14.93;8.95;;;;;;;6.84;88.83;99992.13;5074242;28;20048;-70
2020/12/19 05:49:14;;;;;;;11.80;8.00;;;;;;;6.81;88.88;99997.53;5074085;28;20064;-70
2020/12/19 05:51:42;;;;;;;10.85;8.20;;;;;;;6.74;88.92;99994.34;5075181;28;20418;-73
2020/12/19 05:54:14;;;;;;;13.00;7.85;;;;;;;6.59;89.16;99976.53;5073851;28;20056;-72
2020/12/19 05:56:42;;;;;;;11.50;8.35;;;;;;;6.65;89.44;99989.50;5075120;28;20109;-72
2020/12/19 05:59:11;;;;;;;12.20;8.30;;;;;;;6.71;89.91;99994.47;5075158;28;20052;-71
2020/12/19 06:01:45;;;;;;;13.60;7.60;;;;;;;6.75;89.57;99985.44;5074949;28;20052;-71
2020/12/19 06:04:13;;;;;;;12.95;8.35;;;;;;;6.70;89.77;99986.63;5074859;28;20109;-72
2020/12/19 06:06:41;;;;;;;14.18;8.68;;;;;;;6.65;89.83;99986.84;5074767;28;20056;-71
2020/12/19 06:09:10;;;;;;;12.13;8.82;;;;;;;6.55;90.11;99986.41;5077712;28;20052;-73
2020/12/19 06:12:03;;;;;;;14.80;9.77;;;;;;;6.68;90.78;99988.47;5079136;28;20048;-71
2020/12/19 06:14:35;;;;;;;16.50;10.05;;;;;;;6.82;90.80;99988.69;5078661;28;20056;-72
2020/12/19 06:17:16;;;;;;;14.35;9.45;;;;;;;6.77;90.63;99975.63;5079058;28;20060;-72
2020/12/19 06:19:46;;;;;;;13.75;9.95;;;;;;;6.87;90.26;99981.34;5078894;28;20061;-71
2020/12/19 06:22:13;;;;;;;15.05;10.45;;;;;;;6.89;90.66;99990.09;5077770;28;20059;-72
2020/12/19 06:24:41;;;;;;;14.80;10.45;;;;;;;6.88;90.59;99991.03;5078476;28;20438;-70
2020/12/19 06:27:27;;;;;;;17.13;11.57;;;;;;;6.89;91.15;99990.09;5078747;28;20064;-72
2020/12/19 06:29:53;;;;;;;13.15;10.60;;;;;;;6.84;91.12;99985.94;5078320;28;20472;-72
2020/12/19 06:32:22;;;;;;;17.40;11.45;;;;;;;6.79;91.16;99991.47;5077352;28;20044;-71
2020/12/19 06:35:00;;;;;;;14.68;10.95;;;;;;;6.84;91.55;99994.75;5078494;28;20126;-70
2020/12/19 06:37:31;;;;;;;18.53;10.73;;;;;;;6.79;91.49;99997.66;5078758;28;20049;-72
2020/12/19 06:40:13;;;;;;;14.57;10.27;;;;;;;6.69;91.32;99982.25;5078641;28;20083;-76
2020/12/19 06:42:42;;;;;;;17.27;11.18;;;;;;;6.74;91.29;99994.34;5078299;28;20048;-73
2020/12/19 06:45:18;;;;;;;16.67;10.48;;;;;;;6.66;91.48;99993.84;5078228;28;20063;-74
2020/12/19 06:47:45;;;;;;;15.52;10.73;;;;;;;6.61;91.45;99993.22;5077673;28;20056;-73
2020/12/19 06:50:11;;;;;;;16.85;10.60;;;;;;;6.61;91.90;99995.84;5077657;28;20045;-72
2020/12/19 06:52:38;;;;;;;14.63;11.15;;;;;;;6.72;91.33;100009.47;5078002;28;20036;-72
2020/12/19 06:55:19;;;;;;;22.13;11.20;;;;;;;6.56;91.12;99985.47;5078038;28;20071;-72
2020/12/19 06:57:59;;;;;;;16.75;11.93;;;;;;;6.60;91.58;100002.94;5076683;28;20378;-74
2020/12/19 07:00:29;;;;;;;15.65;11.20;;;;;;;6.58;91.66;99994.22;5074061;28;20096;-76
2020/12/19 07:03:00;;;;;;;15.70;11.33;;;;;;;6.70;91.21;100002.53;5075963;28;20048;-73
2020/12/19 07:05:28;;;;;;;15.73;10.82;;;;;;;6.63;90.60;100001.94;5078751;28;20063;-75
2020/12/19 07:08:17;;;;;;;15.35;11.15;;;;;;;6.65;90.54;100013.34;5076252;28;20044;-75
2020/12/19 07:10:43;;;;;;;16.95;11.30;;;;;;;6.56;90.66;100008.47;5076401;28;20044;-72
2020/12/19 07:13:10;;;;;;;15.75;11.43;;;;;;;6.54;91.18;100008.53;5077440;28;20045;-73
2020/12/19 07:15:47;;;;;;;15.70;11.20;;;;;;;6.56;91.55;100012.00;5075886;28;20449;-76
2020/12/19 07:18:31;;;;;;;14.95;11.15;;;;;;;6.59;91.26;100001.22;5077120;28;20131;-75
2020/12/19 07:21:09;;;;;;;19.95;11.23;;;;;;;6.63;91.04;100004.59;5073144;28;20049;-76
2020/12/19 07:23:37;;;;;;;15.98;10.57;;;;;;;6.59;91.32;100008.34;5075033;28;20048;-76
2020/12/19 07:26:05;;;;;;;16.42;11.25;;;;;;;6.51;91.15;100000.72;5074052;28;20056;-77
2020/12/19 07:28:31;;;;;;;16.40;10.85;;;;;;;6.60;92.21;99999.44;5059024;28;20049;-77
2020/12/19 07:30:59;;;;;;;15.60;11.32;;;;;;;6.73;91.88;99986.44;5074953;28;20045;-77
2020/12/19 07:33:25;;;;;;;13.70;10.88;;;;;;;6.77;91.68;99996.00;5064090;28;20045;-76
2020/12/19 07:35:51;;;;;;;15.05;10.20;;;;;;;6.92;91.55;99991.75;5073381;28;20056;-78
2020/12/19 07:38:20;;;;;;;13.40;10.20;;;;;;;7.02;91.42;99982.38;5076383;28;20106;-74
2020/12/19 07:40:54;;;;;;;13.63;9.75;;;;;;;7.17;90.98;99986.09;5073476;28;20496;-75
2020/12/19 07:43:22;;;;;;;14.75;9.45;;;;;;;7.29;90.42;99979.31;5073385;28;20049;-76
2020/12/19 07:45:49;;;;;;;14.98;9.32;;;;;;;7.34;90.17;99984.38;5076785;28;20495;-76
2020/12/19 07:48:17;;;;;;;16.83;10.02;;;;;;;7.40;90.13;99972.59;5076715;28;20074;-71
2020/12/19 07:50:44;;;;;;;12.73;9.07;;;;;;;7.53;89.48;99983.44;5077029;28;20339;-73
2020/12/19 07:53:10;;;;;;;16.35;10.18;;;;;;;7.50;89.65;99981.81;5075778;28;20040;-76
2020/12/19 07:55:36;;;;;;;12.27;9.07;;;;;;;7.51;89.40;99974.72;5076976;28;20169;-74
2020/12/19 07:58:03;;;;;;;12.23;9.35;;;;;;;7.59;88.97;99977.81;5075403;28;20056;-74
2020/12/19 08:00:31;;;;;;;10.18;8.38;;;;;;;7.34;88.66;99942.75;5076746;28;20123;-79
2020/12/19 08:02:57;;;;;;;12.38;8.27;;;;;;;7.62;88.76;99985.63;5076414;28;20049;-77
2020/12/19 08:05:24;;;;;;;13.85;8.98;;;;;;;7.57;89.44;99983.19;5075304;28;20063;-77
2020/12/19 08:07:54;;;;;;;10.93;8.32;;;;;;;7.59;88.89;99978.66;5076232;28;20048;-80
2020/12/19 08:10:21;;;;;;;13.70;8.48;;;;;;;7.83;87.91;99973.03;5077045;28;20076;-76
2020/12/19 08:12:48;;;;;;;11.93;8.23;;;;;;;7.74;88.05;99974.34;5076458;28;20037;-74
2020/12/19 08:15:18;;;;;;;13.60;8.27;;;;;;;7.67;88.37;99982.75;5075204;28;20050;-75
2020/12/19 08:17:50;;;;;;;14.18;8.30;;;;;;;7.69;88.41;99988.84;5055829;28;20074;-75
2020/12/19 08:20:19;;;;;;;10.40;7.95;;;;;;;7.73;88.33;99983.28;5075876;28;20052;-73
2020/12/19 08:22:47;;;;;;;13.55;8.27;;;;;;;7.91;87.87;99985.03;5075524;28;20107;-75
2020/12/19 08:25:14;;;;;;;10.25;7.70;;;;;;;7.91;87.63;99977.06;5073781;28;20098;-71
2020/12/19 08:27:49;;;;;;;10.75;7.97;;;;;;;7.81;87.85;99963.41;5074974;28;20055;-75
2020/12/19 08:30:37;;;;;;;14.68;8.60;;;;;;;7.85;87.97;99964.97;5067917;28;20117;-73
2020/12/19 08:33:06;;;;;;;13.70;7.65;;;;;;;7.90;87.55;99972.69;5068451;28;20089;-78
2020/12/19 08:35:41;;;;;;;10.38;6.68;;;;;;;8.02;87.09;99983.53;5061847;28;20041;-79
2020/12/19 08:38:13;;;;;;;13.85;7.88;;;;;;;8.04;87.24;99982.59;5056970;28;20099;-79
2020/12/19 08:40:45;;;;;;;12.68;7.40;;;;;;;8.14;86.69;99967.88;5056517;28;20045;-79
2020/12/19 08:43:14;;;;;;;11.48;7.25;;;;;;;8.25;86.34;99977.91;5055747;28;20060;-79
2020/12/19 08:45:41;;;;;;;12.20;7.03;;;;;;;8.33;85.85;99970.38;5062020;28;20052;-78
2020/12/19 08:48:17;;;;;;;9.18;6.78;;;;;;;8.30;86.06;99975.88;5065406;28;20132;-78
2020/12/19 08:50:44;;;;;;;10.10;6.10;;;;;;;8.42;85.36;99961.03;5065886;28;20093;-76
2020/12/19 08:53:21;;;;;;;10.68;6.18;;;;;;;8.42;85.38;99977.00;5056993;28;20061;-76
2020/12/19 08:55:48;;;;;;;9.93;5.88;;;;;;;8.41;85.05;99969.97;5070996;28;20055;-77
2020/12/19 08:58:34;;;;;;;12.00;5.57;;;;;;;8.58;84.38;99960.22;5071309;28;20052;-78
2020/12/19 09:01:14;;;;;;;11.20;5.82;;;;;;;8.66;84.26;99968.66;5071876;28;20347;-80
2020/12/19 09:03:41;;;;;;;9.27;5.53;;;;;;;8.61;84.22;99976.84;5056994;28;20071;-77
2020/12/19 09:06:10;;;;;;;10.65;5.28;;;;;;;8.69;83.74;99969.34;5061374;28;20094;-79
2020/12/19 09:08:45;;;;;;;7.95;5.35;;;;;;;8.75;83.66;99981.41;5059038;28;20056;-79
2020/12/19 09:11:23;;;;;;;10.50;5.00;;;;;;;8.85;83.18;99986.22;5056283;28;20055;-77
2020/12/19 09:13:49;;;;;;;7.78;4.80;;;;;;;8.94;82.82;99988.38;5055416;28;20067;-76
2020/12/19 09:16:15;;;;;;;9.20;5.03;;;;;;;9.01;82.48;99987.06;5060246;28;20045;-78
2020/12/19 09:18:41;;;;;;;7.97;4.65;;;;;;;8.98;82.69;99984.56;5074289;28;20446;-77
2020/12/19 09:21:10;;;;;;;9.82;5.05;;;;;;;9.07;82.45;99983.19;5068393;28;20107;-77
2020/12/19 09:23:37;;;;;;;11.80;4.85;;;;;;;9.13;81.91;99985.50;5062152;28;20071;-80
2020/12/19 09:26:05;;;;;;;12.35;5.32;;;;;;;9.18;81.98;99988.75;5065465;28;20053;-73
2020/12/19 09:28:32;;;;;;;6.05;4.55;;;;;;;9.13;82.23;99992.63;5062703;28;20053;-79
2020/12/19 09:30:59;;;;;;;7.32;4.70;;;;;;;9.11;81.90;99976.75;5070588;28;20052;-76
2020/12/19 09:33:26;;;;;;;6.10;4.35;;;;;;;9.34;81.44;99998.50;5062038;28;20080;-77
2020/12/19 09:35:54;;;;;;;7.28;4.70;;;;;;;9.44;81.05;100001.50;5063064;28;20096;-78
2020/12/19 09:38:21;;;;;;;5.75;3.80;;;;;;;9.27;81.17;99971.38;5067107;28;20135;-76
2020/12/19 09:40:47;;;;;;;11.10;4.65;;;;;;;9.51;80.42;99992.19;5062519;28;20377;-77
2020/12/19 09:43:13;;;;;;;6.70;3.65;;;;;;;9.59;80.29;100003.25;5062140;28;20070;-75
2020/12/19 09:45:39;;;;;;;7.90;4.63;;;;;;;9.54;80.06;99986.69;5054111;28;20040;-77
2020/12/19 09:48:06;;;;;;;7.22;3.85;;;;;;;9.68;79.38;99971.66;5074094;28;20052;-77
2020/12/19 09:50:33;;;;;;;6.95;4.95;;;;;;;9.78;79.08;99986.16;5075443;28;20052;-76
2020/12/19 09:52:59;;;;;;;10.38;4.60;;;;;;;9.87;79.09;99995.41;5073446;28;20373;-77
2020/12/19 09:55:27;;;;;;;6.20;3.70;;;;;;;9.80;79.16;99989.56;5062065;28;20049;-82
2020/12/19 09:57:55;;;;;;;7.60;3.63;;;;;;;9.85;79.16;99998.16;5065602;28;20374;-77
2020/12/19 10:00:22;;;;;;;5.15;3.58;;;;;;;9.88;78.99;99992.66;5065109;28;20048;-80
2020/12/19 10:02:50;;;;;;;5.15;3.40;;;;;;;9.98;78.60;99992.91;5067404;28;20045;-76
2020/12/19 10:05:16;;;;;;;6.28;3.63;;;;;;;9.98;78.29;99986.75;5068003;28;20047;-75
2020/12/19 10:07:43;;;;;;;6.28;3.53;;;;;;;9.96;77.95;99967.31;5074213;28;20048;-74
2020/12/19 10:10:09;;;;;;;5.68;3.38;;;;;;;10.02;78.19;99989.13;5074461;28;20136;-76
2020/12/19 10:12:36;;;;;;;6.97;3.58;;;;;;;10.08;78.22;99984.38;5075323;28;20052;-73
2020/12/19 10:15:06;;;;;;;5.80;3.63;;;;;;;10.16;77.61;99984.75;5074957;28;20431;-76
2020/12/19 10:17:34;;;;;;;6.15;3.25;;;;;;;10.08;77.86;99968.38;5075391;28;20052;-80
2020/12/19 10:20:06;;;;;;;5.70;3.00;;;;;;;10.28;77.15;99988.44;5074396;28;20048;-77
2020/12/19 10:22:32;;;;;;;9.43;3.38;;;;;;;10.32;77.54;99982.84;5067196;28;20346;-78
2020/12/19 10:25:00;;;;;;;6.65;3.42;;;;;;;10.30;78.08;99983.91;5070463;28;20045;-79
2020/12/19 10:27:26;;;;;;;4.88;2.88;;;;;;;10.30;77.70;99982.06;5062774;28;20094;-80
2020/12/19 10:29:52;;;;;;;7.30;2.78;;;;;;;10.35;77.38;99984.44;5065484;28;20053;-79
2020/12/19 10:32:19;;;;;;;5.45;2.90;;;;;;;10.32;75.94;99941.97;5062820;28;20157;-79
2020/12/19 10:34:46;;;;;;;6.55;2.80;;;;;;;10.45;76.78;99961.59;5059915;28;20049;-80
2020/12/19 10:37:12;;;;;;;6.15;3.00;;;;;;;10.53;75.99;99962.94;5069965;28;20053;-76
2020/12/19 10:39:38;;;;;;;5.80;2.60;;;;;;;10.55;76.17;99953.88;5056272;28;20063;-77
2020/12/19 10:42:04;;;;;;;5.70;3.10;;;;;;;10.52;76.38;99961.22;5064742;28;20139;-78
2020/12/19 10:44:30;;;;;;;4.78;2.78;;;;;;;10.62;76.26;99959.66;5059202;28;20060;-75
2020/12/19 10:46:58;;;;;;;5.65;3.25;;;;;;;10.58;76.30;99952.81;5064940;28;20060;-75
2020/12/19 10:49:26;;;;;;;6.05;2.63;;;;;;;10.61;76.15;99947.25;5063465;28;20048;-76
2020/12/19 10:51:52;;;;;;;5.35;3.13;;;;;;;10.69;75.81;99957.47;5071075;28;20041;-77
2020/12/19 10:54:18;;;;;;;4.20;2.45;;;;;;;10.73;76.02;99957.16;5074173;28;20056;-76
2020/12/19 10:56:55;;;;;;;6.20;3.10;;;;;;;10.78;75.46;99942.66;5067152;28;20056;-76
2020/12/19 10:59:21;;;;;;;4.93;2.38;;;;;;;10.69;76.45;99944.94;5067000;28;20049;-74
2020/12/19 11:01:48;;;;;;;7.82;2.97;;;;;;;10.84;75.92;99945.78;5078288;28;20048;-79
2020/12/19 11:04:15;;;;;;;9.48;2.47;;;;;;;10.83;75.27;99943.19;5078199;28;20048;-77
2020/12/19 11:06:41;;;;;;;5.68;2.38;;;;;;;10.83;75.38;99928.03;5078351;28;20056;-79
2020/12/19 11:09:08;;;;;;;3.53;2.03;;;;;;;10.89;74.79;99929.44;5078036;28;20400;-77
2020/12/19 11:11:35;;;;;;;4.03;2.80;;;;;;;10.94;74.53;99924.66;5077868;28;20080;-78
2020/12/19 11:14:01;;;;;;;5.43;2.15;;;;;;;10.86;74.44;99916.31;5066962;28;20053;-78
2020/12/19 11:16:29;;;;;;;5.28;2.45;;;;;;;10.91;73.96;99910.66;5073667;28;20110;-78
2020/12/19 11:18:56;;;;;;;6.22;2.60;;;;;;;10.93;74.38;99917.59;5056777;28;20110;-79
2020/12/19 11:21:23;;;;;;;3.53;1.88;;;;;;;10.97;74.23;99911.13;5057825;28;20053;-79
2020/12/19 11:23:50;;;;;;;3.08;2.08;;;;;;;11.00;73.48;99894.00;5063654;28;20439;-80
2020/12/19 11:26:21;;;;;;;5.43;2.35;;;;;;;11.25;73.11;99905.72;5078074;28;20056;-78
2020/12/19 11:28:50;;;;;;;4.13;1.98;;;;;;;11.39;72.62;99902.94;5071761;28;20136;-78
2020/12/19 11:31:24;;;;;;;5.88;3.05;;;;;;;11.47;71.87;99886.41;5077281;28;20499;-78
2020/12/19 11:33:51;;;;;;;4.88;2.00;;;;;;;11.57;72.23;99893.75;5077779;28;20337;-77